Flight Track Log - Related Links

Times and Time Zones

All times are in EDT time to prevent confusion due to time zone crossing. See the RPA3228 flight status page for this flight to view local times or setup timezone preferences in your user account.

Time Position Orientation Groundspeed Altitude Reporting Facility
EDT Latitude Longitude Course Direction KTS MPH feet Rate Location/Type
Thu 10:50:49 AM 38.7833 -77.0333 North 197 227 2,100  Level Potomac TRACON
Thu 10:51:50 AM 38.7167 -77.0333 180° South 276 318 4,400 1,438 Climbing Potomac TRACON
Thu 10:52:00 AM 39.2468 -77.1920 337° Northwest  Level Estimated
Thu 10:52:50 AM 38.7000 -77.1167 256° West 264 304 5,000  Level Potomac TRACON
Thu 10:53:00 AM 39.3784 -77.2438 339° North  Level Estimated
Thu 10:53:51 AM 38.6833 -77.2167 258° West 272 313 6,800  Level Potomac TRACON
Thu 10:54:00 AM 39.5100 -77.2958 339° North  Level Estimated
Thu 10:54:51 AM 38.7333 -77.2833 314° West 289 333 9,600  Level Potomac TRACON
Thu 10:55:00 AM 39.6416 -77.3480 North  Level Estimated
Thu 10:55:51 AM 38.8000 -77.3333 330° Northwest 310 357 11,500  Level Potomac TRACON
Thu 10:56:00 AM 39.7302 -77.3833 North  Level Estimated
Thu 10:56:51 AM 38.8833 -77.4000 328° Northwest 302 348 13,900  Level Potomac TRACON
Thu 10:57:51 AM 38.9500 -77.4167 349° North 285 328 14,800 1,550 Climbing Potomac TRACON
Thu 10:58:51 AM 39.0667 -77.4333 354° North 317 365 17,000 810 Climbing Potomac TRACON
Thu 11:00:34 AM 39.2297 -77.4967 343° North 354 407 17,000 618 Level Washington Center
Thu 11:01:36 AM 39.3319 -77.4886 North 347 399 18,700 1,650 Climbing Washington Center
Thu 11:02:34 AM 39.4364 -77.4753 North 352 405 20,300 1,447 Climbing Washington Center
Thu 11:04:26 AM 39.6381 -77.4597 North 385 443 22,800 1,291 Climbing New York Center
Thu 11:05:26 AM 39.7492 -77.4892 348° North 385 443 24,000 600 Climbing New York Center
Thu 11:06:26 AM 39.8575 -77.5267 345° North 391 450 24,000  Level New York Center
Thu 11:07:26 AM 39.9639 -77.5639 345° North 391 450 24,000  Level New York Center
Thu 11:08:26 AM 40.0681 -77.6014 345° North 396 456 24,000  Level New York Center
Thu 11:09:26 AM 40.1764 -77.6364 346° North 391 450 24,000  Level New York Center
Thu 11:10:26 AM 40.2828 -77.6742 345° North 391 450 24,000  Level New York Center
Thu 11:12:12 AM 40.4569 -77.7369 345° North 404 465 24,000  Level Cleveland Center
Thu 11:13:12 AM 40.5769 -77.7811 344° North 404 465 24,000  Level Cleveland Center
Thu 11:14:12 AM 40.6861 -77.8203 345° North 404 465 24,000  Level Cleveland Center
Thu 11:15:12 AM 40.7956 -77.8567 346° North 404 465 24,000  Level Cleveland Center
Thu 11:16:12 AM 40.9028 -77.8989 343° North 399 459 24,000  Level Cleveland Center
Thu 11:17:12 AM 41.0100 -77.9358 345° North 399 459 24,000  Level Cleveland Center
Thu 11:18:12 AM 41.1194 -77.9756 345° North 404 465 24,000  Level Cleveland Center
Thu 11:19:12 AM 41.2286 -78.0128 346° North 404 465 24,000  Level Cleveland Center
Thu 11:20:12 AM 41.3358 -78.0556 343° North 404 465 24,000  Level Cleveland Center
Thu 11:21:12 AM 41.4453 -78.0928 346° North 404 465 24,000 -350 Level Cleveland Center
Thu 11:22:12 AM 41.5439 -78.1278 345° North 399 459 23,300 -500 Descending Cleveland Center
Thu 11:23:12 AM 41.6469 -78.1683 344° North 399 459 23,000 -300 Descending Cleveland Center
Thu 11:24:12 AM 41.7519 -78.2117 343° North 399 459 22,700 -850 Descending Cleveland Center
Thu 11:25:12 AM 41.8392 -78.2894 326° Northwest 383 441 21,300 -857 Descending Cleveland Center
Thu 11:26:11 AM 41.9361 -78.3444 337° Northwest 376 433 21,000 -150 Descending Cleveland Center
Thu 11:27:12 AM 42.0408 -78.3744 348° North 376 433 21,000 -744 Level Cleveland Center
Thu 11:28:12 AM 42.1514 -78.3789 358° North 387 445 19,500 -1,950 Descending Cleveland Center
Thu 11:29:12 AM 42.2700 -78.3692 North 392 451 17,100 -2,300 Descending Cleveland Center
Thu 11:30:12 AM 42.3742 -78.3572 North 381 438 14,900 -2,150 Descending Cleveland Center
Thu 11:31:12 AM 42.4742 -78.3592 359° North 376 433 12,800 -1,900 Descending Cleveland Center
Thu 11:32:12 AM 42.5683 -78.3758 353° North 360 414 11,100 -1,350 Descending Cleveland Center
Thu 11:33:12 AM 42.6561 -78.3867 355° North 336 387 10,100 -1,250 Descending Cleveland Center
Thu 11:34:12 AM 42.7417 -78.3978 355° North 314 361 8,600 -1,600 Descending Cleveland Center
Thu 11:35:12 AM 42.8169 -78.4067 355° North 293 337 6,900 -1,700 Descending Cleveland Center
Thu 11:36:12 AM 42.8781 -78.4469 334° Northwest 268 308 5,200 -1,650 Descending Cleveland Center
Thu 11:37:12 AM 42.9417 -78.4931 332° Northwest 262 302 3,600 -1,450 Descending Cleveland Center
Thu 11:38:12 AM 43.0092 -78.5392 333° Northwest 246 283 2,300 -650 Descending Cleveland Center
Thu 11:39:12 AM 43.0331 -78.6008 298° West 193 222 2,300  Level Cleveland Center
Thu 11:39:49 AM 43.0167 -78.6333 235° Southwest 198 228 2,300 -466 Level Buffalo TRACON
Thu 11:40:55 AM 42.9833 -78.6833 228° Southwest 143 165 1,500 -714 Descending Buffalo TRACON
Thu 11:41:55 AM 42.9500 -78.7167 216° Southwest 113 130 800 -700 Descending Buffalo TRACON

Login

Don't have an account? Register now (free) for customized features, flight alerts, and more!